aviador You're here:

KQDG Decoded Metar

ADANA/INCIRLIK in USA-MIL
Report Time2017-08-23 23:56:00
UTC Time2017-08-24 00:53:59
Flight Rules vfr VFR
Wind110° at 04 kt
W.Rank110° ranks 7
Current wind is below 110° avg. (9.3)
Visibility9999 m
Phenomena:N/A
Clouds:Few 120 Hf
Scattered 220 Hf
Expected CloudBase > 2,400 ft AGL from Temp-Dew spread
CeilingNone
Temp28°C (ISA +13)
Dew Point22°C (70% RH)
Heat Index30.7°C
QNH1005 hPa
Density Alt2,408 ft
Elevation240 ft
Report Wrong Elevation
Raw Report
METAR KQDG 232356Z AUTO 11004KT 9999 FEW120 SCT220 28/22 A2968 RMK
AO2 SLP053 T02830223 10283 20185 57015 PWINO $=

Extra information for KQDG:More info

Metar Taf Metar & Taf Last 4 Metars F.Rules Stats Wind Profile Meteogram Temp Stats Airport Information Weather charts Add Link Nearby VenuesMetar ALERT Operation Metar Decoded Social comments